Main page
METAR-TAF:

METAR-TAF

Airports :

Bologna Guglielmo Marconi Airport

Bologna, Italy

latitude: 44-32N, longitude: 011-18E, elevation: 36 m

Current weather observation

The report was made 28 minutes ago, at 12:50 UTC
Wind 15 kt from the East
Temperature 13°C
Humidity 33%
Pressure 1020 hPa
Visibility 10 km or more
Few clouds at a height of 3000 ft

METAR: LIPE 261250Z 08015KT 9999 FEW030 13/M03 Q1020

Time: 14:18 (13:18 UTC)

Forecast

The report was made 2 hours and 18 minutes ago, at 11:00 UTC
Forecast valid from 26 at 12 UTC to 27 at 12 UTC
Wind 12 kt from the North/Northeast
Visibility 10 km or more
Scattered clouds at a height of 2000 ft
Becoming
from 26 at 16 UTC to 26 at 18 UTC
Wind 5 kt from variable directions
Becoming
from 27 at 08 UTC to 27 at 10 UTC
Wind 10 kt from the Northeast

TAF: LIPE 261100Z 2612/2712 02012KT 9999 SCT020 BECMG 2616/2618 VRB05KT BECMG 2708/2710 04010KT

Weather observations and forecasts of more than 4000 airports (METAR and TAF reports).

The available stations are represented by yellow and red dots on the map.

Hover mouse over dot to see the name of the station.

Then click to see weather observations and forecasts.

To change the map : click on the green buttons with a black cross to zoom in, on the green button with a dash to zoom out, or on the green arrows for adjacent maps.


METAR-TAF: